Time;durP1;ratioP1;P1;durP2;ratioP2;P2;SDS_P1;SDS_P2;PMS_P1;PMS_P2;Temp;Humidity;BMP_temperature;BMP_pressure;BME280_temperature;BME280_humidity;BME280_pressure;Samples;Min_cycle;Max_cycle;Signal;HPM_P1;HPM_P2
2021/12/26 00:00:31;;;;;;;106.83;66.83;;;;;;;4.49;81.96;99212.06;5090602;28;20691;-57
2021/12/26 00:02:59;;;;;;;104.30;64.50;;;;;;;4.50;82.32;99224.00;5090833;28;21014;-58
2021/12/26 00:05:28;;;;;;;109.00;64.30;;;;;;;4.43;82.01;99207.63;5095291;28;20252;-58
2021/12/26 00:07:56;;;;;;;96.37;63.43;;;;;;;4.41;81.67;99213.47;5090708;28;20210;-57
2021/12/26 00:10:26;;;;;;;101.73;63.73;;;;;;;4.39;82.29;99217.66;5090626;28;20564;-58
2021/12/26 00:12:53;;;;;;;98.23;62.27;;;;;;;4.36;81.95;99215.88;5076483;28;20188;-57
2021/12/26 00:15:20;;;;;;;88.80;57.67;;;;;;;4.22;82.07;99216.19;5072765;28;20731;-58
2021/12/26 00:17:48;;;;;;;97.38;67.18;;;;;;;4.25;82.25;99229.00;5069712;28;20607;-58
2021/12/26 00:20:16;;;;;;;90.13;59.93;;;;;;;4.26;82.49;99238.38;5070864;28;20225;-58
2021/12/26 00:22:44;;;;;;;96.70;58.30;;;;;;;4.23;82.72;99233.19;5070145;28;20208;-57
2021/12/26 00:25:14;;;;;;;95.33;61.07;;;;;;;4.17;82.74;99233.81;5076974;28;20195;-57
2021/12/26 00:27:41;;;;;;;85.30;53.37;;;;;;;4.23;82.16;99225.56;5090968;28;20686;-57
2021/12/26 00:30:12;;;;;;;89.70;56.47;;;;;;;4.24;81.93;99232.34;5090866;28;20642;-57
2021/12/26 00:32:40;;;;;;;84.90;53.83;;;;;;;4.22;81.40;99221.25;5090765;28;20223;-57
2021/12/26 00:35:09;;;;;;;88.03;55.93;;;;;;;4.19;81.63;99214.38;5090862;28;20212;-57
2021/12/26 00:37:36;;;;;;;92.77;55.63;;;;;;;4.06;82.35;99220.72;5090634;28;20700;-57
2021/12/26 00:40:04;;;;;;;86.57;56.73;;;;;;;4.00;82.40;99232.31;5090237;28;20214;-57
2021/12/26 00:42:32;;;;;;;94.30;58.60;;;;;;;3.62;82.94;99169.91;5091194;28;20500;-57
2021/12/26 00:44:59;;;;;;;95.60;58.37;;;;;;;3.98;82.92;99229.69;5090829;28;20191;-57
2021/12/26 00:47:29;;;;;;;95.53;59.83;;;;;;;3.98;83.00;99244.94;5090651;28;20219;-57
2021/12/26 00:49:56;;;;;;;97.17;58.70;;;;;;;3.96;82.81;99240.63;5090711;28;20191;-57
2021/12/26 00:52:23;;;;;;;98.68;71.25;;;;;;;4.05;82.95;99238.44;5089650;28;20435;-57
2021/12/26 00:54:50;;;;;;;89.33;60.37;;;;;;;4.04;82.63;99232.47;5090384;28;20194;-57
2021/12/26 00:57:17;;;;;;;88.67;56.20;;;;;;;4.06;82.88;99233.41;5090808;28;20608;-57
2021/12/26 00:59:46;;;;;;;84.97;53.67;;;;;;;4.06;82.68;99230.00;5090694;28;20202;-57
2021/12/26 01:02:13;;;;;;;81.87;54.17;;;;;;;4.06;81.90;99222.38;5090627;28;20593;-57
2021/12/26 01:04:40;;;;;;;94.40;56.53;;;;;;;4.05;82.45;99216.44;5090566;28;20194;-57
2021/12/26 01:07:14;;;;;;;86.50;55.77;;;;;;;4.00;82.70;99220.47;5090365;28;20193;-57
2021/12/26 01:09:45;;;;;;;88.53;55.30;;;;;;;4.01;82.55;99228.97;5090403;28;20232;-57
2021/12/26 01:12:15;;;;;;;84.80;52.43;;;;;;;3.97;82.75;99234.75;5090709;28;20199;-57
2021/12/26 01:14:48;;;;;;;83.67;54.73;;;;;;;3.89;83.01;99225.97;5090542;28;20226;-57
2021/12/26 01:17:20;;;;;;;86.70;57.53;;;;;;;3.95;82.52;99233.81;5090339;28;20191;-57
2021/12/26 01:19:51;;;;;;;77.63;50.70;;;;;;;3.97;83.13;99220.34;5090309;28;20226;-57
2021/12/26 01:22:19;;;;;;;77.17;51.30;;;;;;;3.99;83.06;99218.72;5090692;28;20191;-57
2021/12/26 01:24:48;;;;;;;83.93;54.30;;;;;;;3.94;83.32;99207.53;5090200;28;20195;-57
2021/12/26 01:27:15;;;;;;;96.15;71.03;;;;;;;4.01;83.15;99206.09;5089373;28;20506;-57
2021/12/26 01:29:42;;;;;;;90.87;60.30;;;;;;;4.05;82.82;99213.00;5090154;28;20222;-57
2021/12/26 01:32:09;;;;;;;100.50;64.87;;;;;;;4.06;82.44;99208.00;5090082;28;20219;-57
2021/12/26 01:34:38;;;;;;;89.00;54.93;;;;;;;4.06;82.35;99199.50;5090227;28;20705;-57
2021/12/26 01:37:05;;;;;;;84.80;51.80;;;;;;;4.04;81.91;99201.09;5090224;28;20194;-57
2021/12/26 01:39:33;;;;;;;81.77;51.83;;;;;;;4.06;82.34;99202.91;5090449;28;20627;-57
2021/12/26 01:42:02;;;;;;;73.67;49.33;;;;;;;4.03;81.89;99205.34;5090081;28;20551;-57
2021/12/26 01:44:30;;;;;;;72.00;47.77;;;;;;;3.97;82.68;99199.16;5089896;28;20663;-57
2021/12/26 01:46:57;;;;;;;75.03;49.77;;;;;;;3.84;83.23;99199.50;5092958;28;20206;-57
2021/12/26 01:49:28;;;;;;;75.97;50.73;;;;;;;3.85;82.49;99196.16;5093825;28;20214;-57
2021/12/26 01:51:59;;;;;;;78.77;50.43;;;;;;;3.84;83.00;99185.13;5093844;28;20200;-57
2021/12/26 01:54:32;;;;;;;75.37;49.30;;;;;;;3.86;82.81;99175.88;5093809;28;20195;-57
2021/12/26 01:57:01;;;;;;;75.07;47.03;;;;;;;3.82;83.13;99183.34;5093756;28;20230;-57
2021/12/26 01:59:30;;;;;;;82.83;51.77;;;;;;;3.82;82.43;99185.91;5093118;28;20194;-57
2021/12/26 02:01:57;;;;;;;81.13;50.40;;;;;;;3.66;83.42;99191.16;5092927;28;20282;-57
2021/12/26 02:04:28;;;;;;;84.03;50.93;;;;;;;3.52;84.53;99193.19;5093210;28;20187;-59
2021/12/26 02:06:56;;;;;;;81.13;51.00;;;;;;;3.32;85.59;99191.56;5093313;28;20728;-57
2021/12/26 02:09:23;;;;;;;82.20;52.27;;;;;;;3.30;85.70;99191.47;5093597;28;20218;-57
2021/12/26 02:11:50;;;;;;;75.73;49.83;;;;;;;3.24;86.52;99190.38;5093555;28;20198;-57
2021/12/26 02:14:17;;;;;;;84.60;52.13;;;;;;;3.00;87.01;99159.81;5093738;28;20191;-57
2021/12/26 02:16:44;;;;;;;81.10;51.97;;;;;;;3.26;87.34;99179.50;5093337;28;20191;-57
2021/12/26 02:19:11;;;;;;;80.30;52.30;;;;;;;3.34;86.68;99184.84;5093490;28;20266;-57
2021/12/26 02:22:00;;;;;;;80.27;50.67;;;;;;;3.39;86.65;99191.84;5093368;28;20191;-57
2021/12/26 02:24:33;;;;;;;76.10;50.17;;;;;;;3.43;85.94;99197.94;5093519;28;20439;-57
2021/12/26 02:29:44;;;;;;;85.17;52.27;;;;;;;3.57;85.69;99201.88;5093099;28;20715;-57
2021/12/26 02:32:12;;;;;;;82.97;50.73;;;;;;;3.52;84.82;99203.34;5093056;28;20250;-57
2021/12/26 02:34:39;;;;;;;71.50;49.90;;;;;;;3.55;85.24;99196.72;5093096;28;20578;-57
2021/12/26 02:37:07;;;;;;;74.43;48.53;;;;;;;3.56;85.01;99195.06;5092980;28;20653;-57
2021/12/26 02:39:35;;;;;;;77.80;50.40;;;;;;;3.65;85.54;99185.25;5093159;28;20187;-57
2021/12/26 02:42:03;;;;;;;76.17;49.87;;;;;;;3.70;85.22;99186.28;5093080;28;20191;-57
2021/12/26 02:44:29;;;;;;;74.50;49.20;;;;;;;3.72;84.41;99192.28;5093054;28;20310;-57
2021/12/26 02:46:56;;;;;;;74.47;48.23;;;;;;;3.80;84.54;99192.56;5092846;28;20201;-57
2021/12/26 02:49:24;;;;;;;71.50;48.07;;;;;;;3.83;84.49;99195.22;5092788;28;20223;-57
2021/12/26 02:51:51;;;;;;;77.03;49.57;;;;;;;3.61;83.95;99154.56;5092756;28;20194;-57
2021/12/26 02:54:23;;;;;;;78.10;49.33;;;;;;;3.79;84.16;99199.31;5092584;28;20280;-57
2021/12/26 02:56:50;;;;;;;75.07;50.97;;;;;;;3.68;84.75;99176.88;5091620;28;20228;-57
2021/12/26 02:59:17;;;;;;;75.07;48.97;;;;;;;3.75;84.62;99192.41;5092189;28;20195;-57
2021/12/26 03:01:44;;;;;;;74.77;47.90;;;;;;;3.79;83.95;99184.06;5092469;28;20681;-57
2021/12/26 03:04:11;;;;;;;67.40;47.73;;;;;;;3.82;84.41;99185.91;5092575;28;20278;-57
2021/12/26 03:06:46;;;;;;;72.77;48.83;;;;;;;3.85;84.17;99178.34;5092602;28;20658;-57
2021/12/26 03:09:13;;;;;;;73.87;49.67;;;;;;;3.90;84.16;99167.56;5092447;28;20282;-57
2021/12/26 03:11:44;;;;;;;74.20;50.43;;;;;;;3.97;84.16;99172.06;5092242;28;20229;-57
2021/12/26 03:14:11;;;;;;;73.70;49.00;;;;;;;3.95;83.94;99167.75;5092367;28;20582;-57
2021/12/26 03:16:38;;;;;;;85.60;52.67;;;;;;;3.92;84.31;99170.16;5092309;28;20290;-57
2021/12/26 03:19:05;;;;;;;79.93;50.87;;;;;;;3.85;83.96;99176.69;5092495;28;20197;-57
2021/12/26 03:21:33;;;;;;;86.40;53.73;;;;;;;3.74;84.94;99172.88;5092013;28;20202;-57
2021/12/26 03:24:00;;;;;;;78.50;51.80;;;;;;;3.77;85.10;99179.75;5092447;28;20256;-57
2021/12/26 03:26:27;;;;;;;75.43;51.50;;;;;;;3.81;84.70;99177.41;5092186;28;20294;-57
2021/12/26 03:28:55;;;;;;;90.47;52.43;;;;;;;3.85;84.27;99186.84;5092182;28;20223;-57
2021/12/26 03:31:22;;;;;;;81.70;53.50;;;;;;;3.83;84.72;99197.78;5091645;28;20290;-56
2021/12/26 03:33:49;;;;;;;76.33;52.40;;;;;;;3.86;84.19;99182.63;5092337;28;20195;-57
2021/12/26 03:36:16;;;;;;;84.40;52.27;;;;;;;3.81;84.51;99169.78;5092186;28;20663;-57
2021/12/26 03:38:43;;;;;;;78.90;53.63;;;;;;;3.86;84.83;99185.19;5092092;28;20222;-57
2021/12/26 03:41:10;;;;;;;84.67;55.23;;;;;;;3.87;84.40;99190.34;5091821;28;20191;-57
2021/12/26 03:43:37;;;;;;;85.33;54.87;;;;;;;3.89;83.87;99191.25;5091753;28;20196;-57
2021/12/26 03:46:05;;;;;;;77.73;51.37;;;;;;;3.87;84.33;99197.97;5091748;28;20285;-57
2021/12/26 03:48:32;;;;;;;81.73;53.90;;;;;;;3.86;84.07;99201.31;5091783;28;20601;-57
2021/12/26 03:51:01;;;;;;;90.30;58.83;;;;;;;3.91;84.08;99188.75;5091565;28;20194;-57
2021/12/26 03:53:28;;;;;;;91.33;60.90;;;;;;;3.95;84.45;99185.53;5091377;28;20199;-57
2021/12/26 03:55:55;;;;;;;92.13;63.03;;;;;;;3.90;84.24;99205.66;5091460;28;20581;-57
2021/12/26 03:58:22;;;;;;;102.20;63.80;;;;;;;3.90;83.96;99203.13;5091565;28;20187;-57
2021/12/26 04:00:50;;;;;;;96.57;61.73;;;;;;;3.82;83.73;99199.44;5091336;28;20194;-57
2021/12/26 04:03:18;;;;;;;94.07;63.50;;;;;;;3.75;83.69;99207.66;5091495;28;20195;-57
2021/12/26 04:05:45;;;;;;;121.90;80.03;;;;;;;3.71;84.22;99212.56;5091457;28;20581;-57
2021/12/26 04:08:12;;;;;;;110.93;73.47;;;;;;;3.70;84.79;99209.16;5090600;28;20191;-57
2021/12/26 04:10:39;;;;;;;99.10;63.87;;;;;;;3.63;85.03;99216.44;5091169;28;20278;-57
2021/12/26 04:13:07;;;;;;;96.90;63.10;;;;;;;3.58;84.95;99208.66;5091112;28;20194;-57
2021/12/26 04:15:35;;;;;;;93.00;60.80;;;;;;;3.63;85.12;99213.91;5091140;28;20202;-57
2021/12/26 04:18:02;;;;;;;81.67;56.80;;;;;;;3.65;85.42;99208.13;5091259;28;20273;-57
2021/12/26 04:20:30;;;;;;;78.63;54.40;;;;;;;3.63;85.26;99204.63;5091005;28;20277;-57
2021/12/26 04:22:58;;;;;;;62.57;43.77;;;;;;;3.67;85.10;99206.50;5090953;28;20187;-57
2021/12/26 04:25:25;;;;;;;71.93;46.07;;;;;;;3.57;85.13;99210.34;5091249;28;20190;-57
2021/12/26 04:27:52;;;;;;;77.03;53.97;;;;;;;3.68;85.15;99213.28;5091056;28;20637;-57
2021/12/26 04:30:21;;;;;;;78.27;51.00;;;;;;;3.69;84.53;99215.03;5090950;28;20305;-57
2021/12/26 04:32:48;;;;;;;74.33;49.93;;;;;;;3.69;84.44;99219.22;5090693;28;20314;-57
2021/12/26 04:35:16;;;;;;;72.73;48.60;;;;;;;3.67;84.46;99216.66;5090781;28;20186;-57
2021/12/26 04:37:45;;;;;;;77.83;53.37;;;;;;;3.71;83.59;99215.94;5090902;28;21006;-57
2021/12/26 04:40:14;;;;;;;76.07;52.17;;;;;;;3.75;84.34;99215.28;5091063;28;20240;-57
2021/12/26 04:42:44;;;;;;;72.73;49.40;;;;;;;3.47;84.06;99175.25;5090812;28;20270;-58
2021/12/26 04:45:12;;;;;;;72.97;51.30;;;;;;;3.76;83.97;99214.47;5090612;28;20186;-57
2021/12/26 04:47:40;;;;;;;82.70;53.33;;;;;;;3.69;83.81;99211.63;5090440;28;20662;-57
2021/12/26 04:50:11;;;;;;;84.53;55.47;;;;;;;3.69;84.18;99216.69;5090492;28;20702;-57
2021/12/26 04:52:39;;;;;;;93.67;59.03;;;;;;;3.64;84.11;99226.69;5090630;28;20681;-57
2021/12/26 04:55:08;;;;;;;105.27;66.53;;;;;;;3.67;84.14;99224.28;5090571;28;20696;-57
2021/12/26 04:57:35;;;;;;;101.97;65.97;;;;;;;3.64;84.13;99219.06;5090495;28;20194;-57
2021/12/26 05:00:04;;;;;;;99.17;62.63;;;;;;;3.63;84.28;99221.53;5090249;28;20183;-57
2021/12/26 05:02:35;;;;;;;95.97;61.17;;;;;;;3.62;83.68;99225.78;5090475;28;20282;-57
2021/12/26 05:05:02;;;;;;;94.30;59.60;;;;;;;3.65;83.74;99225.03;5090942;28;20287;-57
2021/12/26 05:07:29;;;;;;;90.33;60.63;;;;;;;3.63;83.40;99224.94;5090673;28;20234;-57
2021/12/26 05:09:56;;;;;;;92.60;59.53;;;;;;;3.65;83.63;99230.97;5090584;28;20222;-57
2021/12/26 05:12:24;;;;;;;92.07;57.20;;;;;;;3.66;83.63;99222.53;5090737;28;20617;-57
2021/12/26 05:14:51;;;;;;;92.30;59.43;;;;;;;3.64;83.25;99224.16;5090207;28;20198;-57
2021/12/26 05:17:18;;;;;;;88.63;58.60;;;;;;;3.62;83.39;99218.16;5090186;28;20206;-57
2021/12/26 05:19:45;;;;;;;94.43;59.13;;;;;;;3.62;83.47;99219.81;5090357;28;20191;-57
2021/12/26 05:22:12;;;;;;;90.63;61.00;;;;;;;3.55;83.54;99219.56;5094116;28;20278;-57
2021/12/26 05:24:39;;;;;;;94.13;63.43;;;;;;;3.53;83.77;99217.78;5094611;28;20190;-57
2021/12/26 05:27:07;;;;;;;99.97;62.80;;;;;;;3.55;84.35;99208.53;5094581;28;20202;-57
2021/12/26 05:29:35;;;;;;;103.28;76.28;;;;;;;3.60;84.50;99201.97;5093165;28;20454;-57
2021/12/26 05:32:02;;;;;;;110.63;75.13;;;;;;;3.66;84.01;99199.66;5094070;28;20218;-57
2021/12/26 05:34:29;;;;;;;101.27;70.57;;;;;;;3.69;83.38;99221.78;5094156;28;20278;-57
2021/12/26 05:36:56;;;;;;;109.43;70.80;;;;;;;3.70;83.96;99219.31;5094141;28;20277;-57
2021/12/26 05:39:23;;;;;;;104.60;73.07;;;;;;;3.70;83.70;99216.78;5093577;28;20188;-57
2021/12/26 05:41:50;;;;;;;107.57;71.20;;;;;;;3.66;83.57;99208.97;5090142;28;20270;-57
2021/12/26 05:44:17;;;;;;;110.73;73.43;;;;;;;3.67;84.10;99216.66;5103949;28;20187;-57
2021/12/26 05:46:46;;;;;;;122.83;82.37;;;;;;;3.56;84.15;99223.84;5101723;28;20218;-57
2021/12/26 05:49:13;;;;;;;107.87;75.63;;;;;;;3.61;84.33;99236.72;5096491;28;20703;-57
2021/12/26 05:51:42;;;;;;;128.00;87.03;;;;;;;3.49;83.93;99236.22;5094712;28;20579;-57
2021/12/26 05:54:09;;;;;;;130.97;87.93;;;;;;;3.35;85.02;99240.75;5093313;28;20190;-56
2021/12/26 05:56:37;;;;;;;135.17;85.37;;;;;;;3.29;85.59;99227.84;5093070;28;20187;-56
2021/12/26 05:59:04;;;;;;;116.00;73.90;;;;;;;3.14;86.23;99218.72;5093257;28;20183;-56
2021/12/26 06:01:31;;;;;;;113.67;76.47;;;;;;;3.13;86.79;99217.84;5093401;28;20282;-57
2021/12/26 06:04:00;;;;;;;115.73;79.47;;;;;;;3.18;86.57;99225.69;5093463;28;20190;-57
2021/12/26 06:06:27;;;;;;;117.83;76.53;;;;;;;3.25;86.16;99227.63;5093646;28;20191;-56
2021/12/26 06:08:54;;;;;;;105.57;70.00;;;;;;;3.30;86.06;99237.19;5093521;28;20191;-57
2021/12/26 06:11:20;;;;;;;106.67;71.80;;;;;;;3.36;86.04;99239.97;5093307;28;20194;-57
2021/12/26 06:13:47;;;;;;;104.27;65.03;;;;;;;3.48;85.87;99245.56;5093424;28;20605;-57
2021/12/26 06:16:14;;;;;;;98.30;65.87;;;;;;;3.56;85.62;99245.84;5093226;28;20320;-56
2021/12/26 06:18:41;;;;;;;95.53;65.37;;;;;;;3.45;85.43;99211.53;5093155;28;20197;-57
2021/12/26 06:21:10;;;;;;;93.00;58.33;;;;;;;3.69;84.91;99250.59;5093013;28;20202;-57
2021/12/26 06:23:36;;;;;;;89.13;58.00;;;;;;;3.71;84.88;99246.44;5093205;28;20561;-57
2021/12/26 06:26:03;;;;;;;89.13;58.27;;;;;;;3.73;84.64;99247.38;5093104;28;20183;-57
2021/12/26 06:28:30;;;;;;;97.50;63.77;;;;;;;3.70;84.06;99232.00;5093385;28;20654;-57
2021/12/26 06:30:57;;;;;;;107.85;81.60;;;;;;;3.85;83.75;99258.00;5092207;28;20444;-57
2021/12/26 06:33:24;;;;;;;102.97;71.07;;;;;;;3.94;83.22;99267.66;5092023;28;20610;-58
2021/12/26 06:35:51;;;;;;;96.80;62.13;;;;;;;3.97;83.09;99268.66;5095417;28;20223;-57
2021/12/26 06:38:20;;;;;;;87.70;59.80;;;;;;;3.97;83.06;99270.31;5091255;28;20202;-57
2021/12/26 06:40:47;;;;;;;98.93;70.47;;;;;;;3.99;82.73;99264.47;5090978;28;21018;-57
2021/12/26 06:43:14;;;;;;;91.90;60.43;;;;;;;4.04;82.19;99257.88;5091964;28;20294;-57
2021/12/26 06:45:41;;;;;;;92.50;60.70;;;;;;;4.05;82.61;99259.63;5108184;28;20737;-57
2021/12/26 06:48:08;;;;;;;98.33;61.60;;;;;;;3.90;82.18;99230.25;5092668;28;20211;-57
2021/12/26 06:50:36;;;;;;;98.77;60.63;;;;;;;3.84;81.88;99205.47;5091674;28;20210;-57
2021/12/26 06:53:04;;;;;;;100.10;64.63;;;;;;;4.05;81.81;99258.75;5095315;28;20194;-57
2021/12/26 06:55:32;;;;;;;98.73;63.77;;;;;;;4.02;81.85;99262.06;5095700;28;20190;-57
2021/12/26 06:57:59;;;;;;;96.50;61.93;;;;;;;3.99;82.18;99264.47;5092587;28;20289;-57
2021/12/26 07:00:26;;;;;;;100.40;63.93;;;;;;;4.03;82.15;99273.97;5092680;28;20279;-57
2021/12/26 07:02:53;;;;;;;93.33;59.30;;;;;;;4.08;81.13;99269.91;5092794;28;20195;-57
2021/12/26 07:05:20;;;;;;;89.37;57.00;;;;;;;4.08;81.36;99267.38;5092497;28;20187;-57
2021/12/26 07:07:47;;;;;;;80.43;54.03;;;;;;;4.08;81.68;99264.84;5092564;28;20282;-57
2021/12/26 07:10:15;;;;;;;87.40;56.37;;;;;;;4.14;81.53;99276.91;5092172;28;20214;-57
2021/12/26 07:12:44;;;;;;;91.47;57.93;;;;;;;4.12;81.53;99281.09;5092331;28;20195;-57
2021/12/26 07:15:12;;;;;;;94.70;59.13;;;;;;;4.02;82.39;99272.22;5092492;28;20191;-57
2021/12/26 07:17:39;;;;;;;82.90;57.37;;;;;;;4.05;81.66;99282.50;5092396;28;20198;-57
2021/12/26 07:20:07;;;;;;;77.27;53.10;;;;;;;3.94;82.54;99276.16;5091961;28;20197;-57
2021/12/26 07:22:34;;;;;;;87.03;53.83;;;;;;;4.02;82.16;99278.97;5092675;28;20302;-56
2021/12/26 07:25:01;;;;;;;88.77;54.90;;;;;;;4.09;81.89;99266.56;5092538;28;20297;-56
2021/12/26 07:27:28;;;;;;;84.10;53.90;;;;;;;4.23;82.30;99273.84;5091845;28;20310;-57
2021/12/26 07:29:58;;;;;;;78.63;52.37;;;;;;;4.38;81.43;99274.41;5091963;28;21097;-57
2021/12/26 07:32:25;;;;;;;71.87;47.00;;;;;;;4.31;81.52;99250.44;5091700;28;20322;-56
2021/12/26 07:34:52;;;;;;;67.87;47.20;;;;;;;4.46;80.75;99271.34;5091988;28;20187;-57
2021/12/26 07:37:19;;;;;;;73.73;50.03;;;;;;;4.47;80.58;99279.84;5091775;28;20277;-57
2021/12/26 07:39:46;;;;;;;74.73;51.60;;;;;;;4.57;80.43;99271.72;5092163;28;20274;-57
2021/12/26 07:42:13;;;;;;;75.72;58.58;;;;;;;4.70;79.83;99282.38;5090858;28;20511;-57
2021/12/26 07:44:40;;;;;;;74.20;48.20;;;;;;;4.75;79.64;99282.56;5091032;28;20191;-57
2021/12/26 07:47:09;;;;;;;69.70;47.30;;;;;;;4.78;79.02;99291.16;5091676;28;20565;-57
2021/12/26 07:49:36;;;;;;;65.50;46.60;;;;;;;4.76;78.67;99286.84;5091380;28;20771;-57
2021/12/26 07:52:10;;;;;;;65.90;44.83;;;;;;;4.74;79.00;99280.84;5091464;28;20210;-56
2021/12/26 07:54:36;;;;;;;66.03;45.13;;;;;;;4.71;78.96;99273.09;5091729;28;20186;-57
2021/12/26 07:57:06;;;;;;;62.97;43.50;;;;;;;4.79;79.21;99297.13;5091258;28;20222;-56
2021/12/26 07:59:33;;;;;;;65.33;40.87;;;;;;;4.82;79.11;99294.69;5091406;28;20193;-58
2021/12/26 08:02:00;;;;;;;54.87;39.00;;;;;;;4.84;78.77;99287.97;5091284;28;20282;-57
2021/12/26 08:04:29;;;;;;;59.07;39.77;;;;;;;4.85;79.13;99287.16;5091512;28;20199;-57
2021/12/26 08:06:58;;;;;;;59.47;40.33;;;;;;;4.90;78.75;99288.19;5091511;28;20198;-57
2021/12/26 08:09:25;;;;;;;72.87;47.43;;;;;;;4.85;78.58;99284.63;5091373;28;20198;-58
2021/12/26 08:11:52;;;;;;;73.70;48.60;;;;;;;4.73;79.42;99279.97;5091224;28;20225;-57
2021/12/26 08:14:19;;;;;;;73.88;53.15;;;;;;;4.83;79.89;99285.38;5089790;28;20440;-57
2021/12/26 08:16:48;;;;;;;66.93;46.30;;;;;;;4.89;79.34;99273.72;5090043;28;20233;-58
2021/12/26 08:19:14;;;;;;;65.90;44.93;;;;;;;4.86;78.85;99263.47;5087441;28;20199;-57
2021/12/26 08:21:43;;;;;;;67.57;45.50;;;;;;;4.86;79.82;99262.59;5089645;28;20673;-58
2021/12/26 08:24:10;;;;;;;67.27;44.57;;;;;;;4.83;79.72;99275.19;5092271;28;21847;-57
2021/12/26 08:26:37;;;;;;;70.87;46.70;;;;;;;4.86;80.57;99277.84;5089846;28;20195;-57
2021/12/26 08:29:04;;;;;;;69.60;45.97;;;;;;;4.89;80.41;99265.25;5089509;28;20352;-57
2021/12/26 08:31:31;;;;;;;73.07;48.37;;;;;;;4.89;80.85;99265.25;5090701;28;21042;-56
2021/12/26 08:33:58;;;;;;;85.17;51.37;;;;;;;4.83;80.70;99253.16;5090681;28;20877;-57
2021/12/26 08:36:25;;;;;;;80.03;51.40;;;;;;;4.77;80.87;99252.94;5090614;28;20195;-57
2021/12/26 08:38:53;;;;;;;81.28;61.00;;;;;;;5.03;79.88;99249.59;5089720;28;20439;-56
2021/12/26 08:41:23;;;;;;;86.80;58.70;;;;;;;5.02;79.14;99209.72;5090732;28;20270;-57
2021/12/26 08:43:50;;;;;;;90.87;62.70;;;;;;;5.38;79.18;99243.16;5090356;28;20214;-57
2021/12/26 08:46:19;;;;;;;91.37;58.97;;;;;;;5.45;78.44;99246.75;5090761;28;20227;-57
2021/12/26 08:48:47;;;;;;;96.90;69.90;;;;;;;5.55;77.77;99244.53;5089751;28;20522;-57
2021/12/26 08:51:14;;;;;;;84.47;56.17;;;;;;;5.73;77.52;99246.81;5090514;28;20219;-58
2021/12/26 08:53:41;;;;;;;85.57;55.83;;;;;;;5.82;76.93;99247.09;5092360;28;20286;-58
2021/12/26 08:56:10;;;;;;;91.27;59.90;;;;;;;5.86;76.97;99247.28;5096967;28;20190;-60
2021/12/26 08:58:36;;;;;;;107.17;68.77;;;;;;;5.90;76.56;99250.78;5096010;28;20205;-58
2021/12/26 09:01:03;;;;;;;121.97;75.53;;;;;;;5.90;76.47;99261.84;5103218;28;20183;-57
2021/12/26 09:03:30;;;;;;;83.93;53.90;;;;;;;5.82;76.17;99254.75;5110709;28;20596;-57
2021/12/26 09:05:57;;;;;;;82.10;54.53;;;;;;;5.84;76.46;99251.44;5110540;28;20194;-57
2021/12/26 09:08:24;;;;;;;66.87;46.03;;;;;;;5.89;76.98;99256.69;5110692;28;20195;-58
2021/12/26 09:10:51;;;;;;;67.67;48.43;;;;;;;5.76;76.75;99252.00;5110833;28;20301;-58
2021/12/26 09:13:20;;;;;;;69.93;51.40;;;;;;;5.67;77.37;99257.69;5110848;28;20273;-58
2021/12/26 09:15:47;;;;;;;58.33;39.80;;;;;;;5.61;77.34;99262.56;5100054;28;20522;-57
2021/12/26 09:18:14;;;;;;;39.30;29.43;;;;;;;5.40;76.90;99255.94;5089825;28;20186;-57
2021/12/26 09:20:41;;;;;;;38.50;28.93;;;;;;;5.40;76.89;99267.00;5087141;28;20190;-58
2021/12/26 09:23:08;;;;;;;44.75;33.50;;;;;;;5.47;77.75;99252.75;5088726;28;20493;-58
2021/12/26 09:25:35;;;;;;;37.63;30.30;;;;;;;5.66;76.43;99257.66;5089465;28;20186;-58
2021/12/26 09:28:02;;;;;;;37.37;28.83;;;;;;;5.79;76.46;99255.53;5090064;28;20191;-58
2021/12/26 09:30:30;;;;;;;36.70;28.43;;;;;;;5.93;76.24;99246.63;5089943;28;20222;-58
2021/12/26 09:32:57;;;;;;;43.07;30.27;;;;;;;6.14;76.01;99225.13;5090076;28;20230;-58
2021/12/26 09:35:24;;;;;;;42.17;30.27;;;;;;;6.31;75.26;99235.03;5089931;28;20570;-58
2021/12/26 09:37:51;;;;;;;45.50;30.90;;;;;;;6.54;74.80;99240.75;5089611;28;20192;-58
2021/12/26 09:40:20;;;;;;;40.43;27.80;;;;;;;6.65;74.18;99243.63;5089877;28;20256;-58
2021/12/26 09:42:47;;;;;;;40.57;28.40;;;;;;;6.75;73.87;99243.03;5090046;28;20191;-58
2021/12/26 09:45:18;;;;;;;42.87;28.30;;;;;;;6.84;73.22;99235.66;5090127;28;20202;-58
2021/12/26 09:47:49;;;;;;;38.27;27.53;;;;;;;6.93;72.82;99238.41;5090058;28;20195;-58
2021/12/26 09:50:18;;;;;;;35.37;26.07;;;;;;;6.97;72.86;99242.78;5090136;28;21006;-58
2021/12/26 09:52:48;;;;;;;36.03;26.80;;;;;;;7.02;73.07;99236.97;5089552;28;20193;-58
2021/12/26 09:55:16;;;;;;;42.97;28.87;;;;;;;6.99;72.52;99213.03;5090331;28;20295;-59
2021/12/26 09:57:43;;;;;;;38.93;25.93;;;;;;;7.25;72.51;99235.00;5089915;28;20278;-58
2021/12/26 10:00:26;;;;;;;35.00;27.53;;;;;;;7.30;71.53;99225.78;5089796;28;20196;-58
2021/12/26 10:03:11;;;;;;;47.53;32.07;;;;;;;7.37;71.43;99219.97;5090051;28;21014;-58
2021/12/26 10:06:00;;;;;;;45.80;32.53;;;;;;;7.49;70.78;99221.97;5089626;28;20280;-58
2021/12/26 10:08:29;;;;;;;46.37;32.13;;;;;;;7.62;71.01;99216.31;5093554;28;20199;-59
2021/12/26 10:11:12;;;;;;;45.17;31.20;;;;;;;7.70;70.37;99217.34;5093554;28;20224;-58
2021/12/26 10:13:42;;;;;;;45.53;32.63;;;;;;;7.79;69.67;99216.69;5093425;28;20201;-59
2021/12/26 10:16:09;;;;;;;44.77;32.43;;;;;;;7.84;69.44;99208.28;5092996;28;20280;-59
2021/12/26 10:18:39;;;;;;;42.63;32.63;;;;;;;7.88;69.48;99204.13;5093338;28;20194;-58
2021/12/26 10:21:34;;;;;;;45.63;32.70;;;;;;;7.92;69.17;99206.78;5093208;28;20188;-58
2021/12/26 10:24:05;;;;;;;48.07;36.63;;;;;;;8.01;68.92;99218.91;5093056;28;20283;-58
2021/12/26 10:26:35;;;;;;;49.63;36.67;;;;;;;8.09;69.00;99215.69;5093279;28;20201;-57
2021/12/26 10:29:27;;;;;;;50.60;35.70;;;;;;;8.16;68.69;99220.09;5093166;28;20187;-58
2021/12/26 10:32:06;;;;;;;52.20;37.80;;;;;;;8.13;68.54;99204.66;5088589;28;20226;-56
2021/12/26 10:34:38;;;;;;;45.60;34.93;;;;;;;8.15;68.67;99208.16;5092927;28;20227;-58
2021/12/26 10:37:09;;;;;;;55.20;40.03;;;;;;;8.06;68.53;99184.91;5092882;28;20278;-58
2021/12/26 10:39:40;;;;;;;53.10;38.97;;;;;;;8.02;68.68;99202.72;5093139;28;20190;-57
2021/12/26 10:42:12;;;;;;;60.53;41.70;;;;;;;7.93;68.90;99195.72;5092776;28;20731;-57
2021/12/26 10:44:42;;;;;;;57.07;42.10;;;;;;;7.98;69.35;99198.38;5092823;28;20676;-57
2021/12/26 10:47:12;;;;;;;53.73;40.63;;;;;;;8.02;69.22;99192.50;5092737;28;20190;-57
2021/12/26 10:49:54;;;;;;;61.07;41.03;;;;;;;8.09;68.84;99207.13;5092499;28;20577;-57
2021/12/26 10:52:24;;;;;;;68.57;40.00;;;;;;;8.16;68.39;99194.50;5091763;28;20303;-57
2021/12/26 10:54:58;;;;;;;63.03;44.33;;;;;;;8.23;68.12;99201.50;5092500;28;20664;-57
2021/12/26 10:57:28;;;;;;;63.07;44.37;;;;;;;8.22;68.03;99204.88;5092271;28;20195;-57
2021/12/26 11:00:02;;;;;;;65.87;44.90;;;;;;;8.32;67.79;99203.41;5092375;28;20190;-58
2021/12/26 11:02:30;;;;;;;56.57;39.83;;;;;;;8.39;67.52;99189.88;5092576;28;20612;-57
2021/12/26 11:05:03;;;;;;;51.63;38.40;;;;;;;8.45;67.24;99192.56;5092023;28;20189;-57
2021/12/26 11:07:49;;;;;;;62.00;41.90;;;;;;;8.56;67.39;99190.22;5092003;28;20256;-57
2021/12/26 11:10:20;;;;;;;57.30;41.60;;;;;;;8.52;67.04;99193.53;5091846;28;20208;-57
2021/12/26 11:12:49;;;;;;;62.23;40.87;;;;;;;8.55;67.42;99185.91;5092107;28;20189;-57
2021/12/26 11:15:18;;;;;;;59.67;42.80;;;;;;;8.57;67.35;99184.28;5091907;28;20198;-57
2021/12/26 11:17:49;;;;;;;62.50;44.40;;;;;;;8.61;67.67;99179.22;5093605;28;20277;-56
2021/12/26 11:20:31;;;;;;;65.35;48.00;;;;;;;8.74;67.52;99167.50;5091276;28;20444;-56
2021/12/26 11:22:59;;;;;;;63.47;46.03;;;;;;;8.86;67.17;99178.84;5091719;28;20205;-56
2021/12/26 11:25:28;;;;;;;65.53;46.40;;;;;;;8.92;66.57;99183.22;5091829;28;20198;-55
2021/12/26 11:27:55;;;;;;;68.47;47.00;;;;;;;9.00;66.23;99173.09;5091950;28;20195;-55
2021/12/26 11:30:23;;;;;;;63.50;45.80;;;;;;;9.02;66.20;99176.53;5092060;28;20316;-57
2021/12/26 11:32:50;;;;;;;77.47;49.63;;;;;;;9.11;65.96;99177.56;5091898;28;20284;-57